sensor_id;sensor_type;location;lat;lon;timestamp;P1;durP1;ratioP1;P2;durP2;ratioP2
769;SDS011;368;48.698;9.116;2022-09-13T00:00:21;2.73;;;2.50;;
769;SDS011;368;48.698;9.116;2022-09-13T00:02:48;3.97;;;2.90;;
769;SDS011;368;48.698;9.116;2022-09-13T00:05:14;3.53;;;2.50;;
769;SDS011;368;48.698;9.116;2022-09-13T00:07:41;3.30;;;2.57;;
769;SDS011;368;48.698;9.116;2022-09-13T00:10:08;4.27;;;2.90;;
769;SDS011;368;48.698;9.116;2022-09-13T00:12:35;2.70;;;2.50;;
769;SDS011;368;48.698;9.116;2022-09-13T00:15:02;2.43;;;2.23;;
769;SDS011;368;48.698;9.116;2022-09-13T00:17:30;3.00;;;2.03;;
769;SDS011;368;48.698;9.116;2022-09-13T00:19:57;3.10;;;2.13;;
769;SDS011;368;48.698;9.116;2022-09-13T00:22:23;2.33;;;2.13;;
769;SDS011;368;48.698;9.116;2022-09-13T00:24:51;2.47;;;2.27;;
769;SDS011;368;48.698;9.116;2022-09-13T00:27:18;3.07;;;2.27;;
769;SDS011;368;48.698;9.116;2022-09-13T00:29:45;2.33;;;2.13;;
769;SDS011;368;48.698;9.116;2022-09-13T00:32:12;2.47;;;2.27;;
769;SDS011;368;48.698;9.116;2022-09-13T00:34:40;2.57;;;2.20;;
769;SDS011;368;48.698;9.116;2022-09-13T00:37:07;2.17;;;1.97;;
769;SDS011;368;48.698;9.116;2022-09-13T00:39:33;2.90;;;2.27;;
769;SDS011;368;48.698;9.116;2022-09-13T00:42:00;2.37;;;2.10;;
769;SDS011;368;48.698;9.116;2022-09-13T00:44:48;2.47;;;2.20;;
769;SDS011;368;48.698;9.116;2022-09-13T00:47:21;2.23;;;2.03;;
769;SDS011;368;48.698;9.116;2022-09-13T00:49:52;4.87;;;2.10;;
769;SDS011;368;48.698;9.116;2022-09-13T00:52:24;2.27;;;2.17;;
769;SDS011;368;48.698;9.116;2022-09-13T00:54:54;2.90;;;2.43;;
769;SDS011;368;48.698;9.116;2022-09-13T00:57:23;2.60;;;1.90;;
769;SDS011;368;48.698;9.116;2022-09-13T00:59:51;3.10;;;2.50;;
769;SDS011;368;48.698;9.116;2022-09-13T01:02:22;3.93;;;2.30;;
769;SDS011;368;48.698;9.116;2022-09-13T01:04:49;2.00;;;1.83;;
769;SDS011;368;48.698;9.116;2022-09-13T01:07:17;2.20;;;2.00;;
769;SDS011;368;48.698;9.116;2022-09-13T01:09:46;2.57;;;1.90;;
769;SDS011;368;48.698;9.116;2022-09-13T01:12:16;2.57;;;2.37;;
769;SDS011;368;48.698;9.116;2022-09-13T01:14:50;2.00;;;1.90;;
769;SDS011;368;48.698;9.116;2022-09-13T01:17:18;2.83;;;2.07;;
769;SDS011;368;48.698;9.116;2022-09-13T01:19:44;3.10;;;2.80;;
769;SDS011;368;48.698;9.116;2022-09-13T01:25:18;2.87;;;2.17;;
769;SDS011;368;48.698;9.116;2022-09-13T01:28:11;2.40;;;2.20;;
769;SDS011;368;48.698;9.116;2022-09-13T01:30:52;3.07;;;1.90;;
769;SDS011;368;48.698;9.116;2022-09-13T01:33:30;2.87;;;2.40;;
769;SDS011;368;48.698;9.116;2022-09-13T01:36:09;3.00;;;2.00;;
769;SDS011;368;48.698;9.116;2022-09-13T01:39:02;2.40;;;2.20;;
769;SDS011;368;48.698;9.116;2022-09-13T01:41:38;2.17;;;2.07;;
769;SDS011;368;48.698;9.116;2022-09-13T01:44:27;3.00;;;2.40;;
769;SDS011;368;48.698;9.116;2022-09-13T01:47:05;4.63;;;2.47;;
769;SDS011;368;48.698;9.116;2022-09-13T01:49:44;2.50;;;2.27;;
769;SDS011;368;48.698;9.116;2022-09-13T01:52:19;2.00;;;1.90;;
769;SDS011;368;48.698;9.116;2022-09-13T01:54:56;6.43;;;2.90;;
769;SDS011;368;48.698;9.116;2022-09-13T01:57:31;3.10;;;2.40;;
769;SDS011;368;48.698;9.116;2022-09-13T02:00:04;4.87;;;2.67;;
769;SDS011;368;48.698;9.116;2022-09-13T02:02:36;3.60;;;2.40;;
769;SDS011;368;48.698;9.116;2022-09-13T02:05:09;3.03;;;2.70;;
769;SDS011;368;48.698;9.116;2022-09-13T02:07:40;5.10;;;2.80;;
769;SDS011;368;48.698;9.116;2022-09-13T02:10:12;3.60;;;2.80;;
769;SDS011;368;48.698;9.116;2022-09-13T02:12:43;3.27;;;3.07;;
769;SDS011;368;48.698;9.116;2022-09-13T02:15:13;3.57;;;3.00;;
769;SDS011;368;48.698;9.116;2022-09-13T02:17:44;2.97;;;2.77;;
769;SDS011;368;48.698;9.116;2022-09-13T02:20:15;3.13;;;2.87;;
769;SDS011;368;48.698;9.116;2022-09-13T02:22:47;2.70;;;2.50;;
769;SDS011;368;48.698;9.116;2022-09-13T02:25:18;3.27;;;3.03;;
769;SDS011;368;48.698;9.116;2022-09-13T02:27:48;3.03;;;2.60;;
769;SDS011;368;48.698;9.116;2022-09-13T02:30:18;3.87;;;2.43;;
769;SDS011;368;48.698;9.116;2022-09-13T02:32:48;3.03;;;2.83;;
769;SDS011;368;48.698;9.116;2022-09-13T02:35:21;4.30;;;2.60;;
769;SDS011;368;48.698;9.116;2022-09-13T02:37:54;3.00;;;2.70;;
769;SDS011;368;48.698;9.116;2022-09-13T02:40:26;2.53;;;2.40;;
769;SDS011;368;48.698;9.116;2022-09-13T02:43:00;2.73;;;2.53;;
769;SDS011;368;48.698;9.116;2022-09-13T02:45:35;2.93;;;2.73;;
769;SDS011;368;48.698;9.116;2022-09-13T02:48:13;4.20;;;2.83;;
769;SDS011;368;48.698;9.116;2022-09-13T02:50:48;2.80;;;2.43;;
769;SDS011;368;48.698;9.116;2022-09-13T02:53:25;3.93;;;2.70;;
769;SDS011;368;48.698;9.116;2022-09-13T02:55:59;3.67;;;3.03;;
769;SDS011;368;48.698;9.116;2022-09-13T02:58:32;2.90;;;2.70;;
769;SDS011;368;48.698;9.116;2022-09-13T03:01:09;3.10;;;2.63;;
769;SDS011;368;48.698;9.116;2022-09-13T03:03:37;14.70;;;3.73;;
769;SDS011;368;48.698;9.116;2022-09-13T03:06:04;3.73;;;2.93;;
769;SDS011;368;48.698;9.116;2022-09-13T03:08:31;3.13;;;2.83;;
769;SDS011;368;48.698;9.116;2022-09-13T03:11:01;2.87;;;2.67;;
769;SDS011;368;48.698;9.116;2022-09-13T03:13:40;4.30;;;3.10;;
769;SDS011;368;48.698;9.116;2022-09-13T03:16:27;3.43;;;3.20;;
769;SDS011;368;48.698;9.116;2022-09-13T03:19:12;3.50;;;3.20;;
769;SDS011;368;48.698;9.116;2022-09-13T03:21:53;5.57;;;3.40;;
769;SDS011;368;48.698;9.116;2022-09-13T03:24:36;3.30;;;3.00;;
769;SDS011;368;48.698;9.116;2022-09-13T03:27:14;4.07;;;3.73;;
769;SDS011;368;48.698;9.116;2022-09-13T03:29:50;3.90;;;3.50;;
769;SDS011;368;48.698;9.116;2022-09-13T03:32:26;3.30;;;3.03;;
769;SDS011;368;48.698;9.116;2022-09-13T03:35:01;3.83;;;2.87;;
769;SDS011;368;48.698;9.116;2022-09-13T03:37:39;3.70;;;3.00;;
769;SDS011;368;48.698;9.116;2022-09-13T03:40:13;3.03;;;2.80;;
769;SDS011;368;48.698;9.116;2022-09-13T03:42:45;4.43;;;3.30;;
769;SDS011;368;48.698;9.116;2022-09-13T03:45:16;3.90;;;2.90;;
769;SDS011;368;48.698;9.116;2022-09-13T03:47:48;3.03;;;2.77;;
769;SDS011;368;48.698;9.116;2022-09-13T03:50:18;5.40;;;2.90;;
769;SDS011;368;48.698;9.116;2022-09-13T03:52:49;3.03;;;2.83;;
769;SDS011;368;48.698;9.116;2022-09-13T03:55:17;4.80;;;2.90;;
769;SDS011;368;48.698;9.116;2022-09-13T03:57:46;3.30;;;3.00;;
769;SDS011;368;48.698;9.116;2022-09-13T04:00:13;4.63;;;3.10;;
769;SDS011;368;48.698;9.116;2022-09-13T04:02:42;4.03;;;2.87;;
769;SDS011;368;48.698;9.116;2022-09-13T04:05:09;2.57;;;2.37;;
769;SDS011;368;48.698;9.116;2022-09-13T04:07:37;3.63;;;3.00;;
769;SDS011;368;48.698;9.116;2022-09-13T04:10:04;3.10;;;2.90;;
769;SDS011;368;48.698;9.116;2022-09-13T04:12:31;3.30;;;2.70;;
769;SDS011;368;48.698;9.116;2022-09-13T04:14:59;3.00;;;2.53;;
769;SDS011;368;48.698;9.116;2022-09-13T04:17:26;3.50;;;3.20;;
769;SDS011;368;48.698;9.116;2022-09-13T04:19:53;3.83;;;3.27;;
769;SDS011;368;48.698;9.116;2022-09-13T04:22:19;4.40;;;2.50;;
769;SDS011;368;48.698;9.116;2022-09-13T04:24:47;3.10;;;2.90;;
769;SDS011;368;48.698;9.116;2022-09-13T04:27:16;4.50;;;2.57;;
769;SDS011;368;48.698;9.116;2022-09-13T04:29:43;3.07;;;2.77;;
769;SDS011;368;48.698;9.116;2022-09-13T04:32:10;4.17;;;2.70;;
769;SDS011;368;48.698;9.116;2022-09-13T04:34:37;3.20;;;2.60;;
769;SDS011;368;48.698;9.116;2022-09-13T04:37:04;2.43;;;2.30;;
769;SDS011;368;48.698;9.116;2022-09-13T04:39:31;2.87;;;2.50;;
769;SDS011;368;48.698;9.116;2022-09-13T04:41:59;3.13;;;2.83;;
769;SDS011;368;48.698;9.116;2022-09-13T04:44:26;3.43;;;3.03;;
769;SDS011;368;48.698;9.116;2022-09-13T04:46:53;3.10;;;2.83;;
769;SDS011;368;48.698;9.116;2022-09-13T04:49:20;3.37;;;3.07;;
769;SDS011;368;48.698;9.116;2022-09-13T04:51:47;3.40;;;3.10;;
769;SDS011;368;48.698;9.116;2022-09-13T04:54:14;3.07;;;2.77;;
769;SDS011;368;48.698;9.116;2022-09-13T04:56:41;2.80;;;2.60;;
769;SDS011;368;48.698;9.116;2022-09-13T04:59:10;4.03;;;3.73;;
769;SDS011;368;48.698;9.116;2022-09-13T05:01:37;3.80;;;2.83;;
769;SDS011;368;48.698;9.116;2022-09-13T05:04:05;3.17;;;2.87;;
769;SDS011;368;48.698;9.116;2022-09-13T05:06:32;2.83;;;2.63;;
769;SDS011;368;48.698;9.116;2022-09-13T05:08:59;4.80;;;3.30;;
769;SDS011;368;48.698;9.116;2022-09-13T05:11:26;5.00;;;3.03;;
769;SDS011;368;48.698;9.116;2022-09-13T05:13:54;3.93;;;2.70;;
769;SDS011;368;48.698;9.116;2022-09-13T05:16:25;3.13;;;2.83;;
769;SDS011;368;48.698;9.116;2022-09-13T05:18:53;3.07;;;2.67;;
769;SDS011;368;48.698;9.116;2022-09-13T05:21:20;3.77;;;2.80;;
769;SDS011;368;48.698;9.116;2022-09-13T05:23:47;4.97;;;3.17;;
769;SDS011;368;48.698;9.116;2022-09-13T05:26:15;3.00;;;2.70;;
769;SDS011;368;48.698;9.116;2022-09-13T05:28:42;3.30;;;3.00;;
769;SDS011;368;48.698;9.116;2022-09-13T05:31:11;3.00;;;2.80;;
769;SDS011;368;48.698;9.116;2022-09-13T05:33:42;4.03;;;2.90;;
769;SDS011;368;48.698;9.116;2022-09-13T05:36:10;3.83;;;2.67;;
769;SDS011;368;48.698;9.116;2022-09-13T05:38:37;2.97;;;2.77;;
769;SDS011;368;48.698;9.116;2022-09-13T05:41:04;7.10;;;3.00;;
769;SDS011;368;48.698;9.116;2022-09-13T05:43:32;5.40;;;2.97;;
769;SDS011;368;48.698;9.116;2022-09-13T05:46:00;2.93;;;2.63;;
769;SDS011;368;48.698;9.116;2022-09-13T05:48:29;4.17;;;3.07;;
769;SDS011;368;48.698;9.116;2022-09-13T05:51:02;4.53;;;3.10;;
769;SDS011;368;48.698;9.116;2022-09-13T05:53:30;3.73;;;2.67;;
769;SDS011;368;48.698;9.116;2022-09-13T05:55:56;4.20;;;3.77;;
769;SDS011;368;48.698;9.116;2022-09-13T05:58:23;3.63;;;2.93;;
769;SDS011;368;48.698;9.116;2022-09-13T06:00:51;3.50;;;2.83;;
769;SDS011;368;48.698;9.116;2022-09-13T06:03:18;2.87;;;2.67;;
769;SDS011;368;48.698;9.116;2022-09-13T06:05:45;2.70;;;2.50;;
769;SDS011;368;48.698;9.116;2022-09-13T06:08:13;3.63;;;3.33;;
769;SDS011;368;48.698;9.116;2022-09-13T06:10:40;2.27;;;2.17;;
769;SDS011;368;48.698;9.116;2022-09-13T06:13:07;2.50;;;2.30;;
769;SDS011;368;48.698;9.116;2022-09-13T06:15:34;3.77;;;2.97;;
769;SDS011;368;48.698;9.116;2022-09-13T06:18:01;3.07;;;2.87;;
769;SDS011;368;48.698;9.116;2022-09-13T06:20:27;2.90;;;2.70;;
769;SDS011;368;48.698;9.116;2022-09-13T06:22:55;4.90;;;2.83;;
769;SDS011;368;48.698;9.116;2022-09-13T06:25:23;3.10;;;2.80;;
769;SDS011;368;48.698;9.116;2022-09-13T06:27:49;3.17;;;2.87;;
769;SDS011;368;48.698;9.116;2022-09-13T06:30:16;4.20;;;2.67;;
769;SDS011;368;48.698;9.116;2022-09-13T06:32:43;3.13;;;2.60;;
769;SDS011;368;48.698;9.116;2022-09-13T06:35:10;8.97;;;3.70;;
769;SDS011;368;48.698;9.116;2022-09-13T06:37:37;3.67;;;3.10;;
769;SDS011;368;48.698;9.116;2022-09-13T06:40:04;9.07;;;3.67;;
769;SDS011;368;48.698;9.116;2022-09-13T06:42:33;4.47;;;2.87;;
769;SDS011;368;48.698;9.116;2022-09-13T06:45:00;3.00;;;2.80;;
769;SDS011;368;48.698;9.116;2022-09-13T06:47:27;3.07;;;2.80;;
769;SDS011;368;48.698;9.116;2022-09-13T06:49:54;4.33;;;2.70;;
769;SDS011;368;48.698;9.116;2022-09-13T06:52:21;2.80;;;2.60;;
769;SDS011;368;48.698;9.116;2022-09-13T06:54:48;7.20;;;3.07;;
769;SDS011;368;48.698;9.116;2022-09-13T06:57:15;4.30;;;2.67;;
769;SDS011;368;48.698;9.116;2022-09-13T06:59:43;3.00;;;2.80;;
769;SDS011;368;48.698;9.116;2022-09-13T07:02:10;3.20;;;3.00;;
769;SDS011;368;48.698;9.116;2022-09-13T07:04:38;4.70;;;2.73;;
769;SDS011;368;48.698;9.116;2022-09-13T07:07:05;3.40;;;3.10;;
769;SDS011;368;48.698;9.116;2022-09-13T07:09:32;3.43;;;3.13;;
769;SDS011;368;48.698;9.116;2022-09-13T07:11:59;3.00;;;2.80;;
769;SDS011;368;48.698;9.116;2022-09-13T07:14:27;3.50;;;2.73;;
769;SDS011;368;48.698;9.116;2022-09-13T07:16:55;2.20;;;2.00;;
769;SDS011;368;48.698;9.116;2022-09-13T07:19:23;2.50;;;2.30;;
769;SDS011;368;48.698;9.116;2022-09-13T07:21:51;3.30;;;2.70;;
769;SDS011;368;48.698;9.116;2022-09-13T07:24:20;2.53;;;2.33;;
769;SDS011;368;48.698;9.116;2022-09-13T07:26:48;2.17;;;2.07;;
769;SDS011;368;48.698;9.116;2022-09-13T07:29:16;2.23;;;2.03;;
769;SDS011;368;48.698;9.116;2022-09-13T07:31:46;2.53;;;2.27;;
769;SDS011;368;48.698;9.116;2022-09-13T07:34:17;3.50;;;2.40;;
769;SDS011;368;48.698;9.116;2022-09-13T07:36:46;2.13;;;1.93;;
769;SDS011;368;48.698;9.116;2022-09-13T07:39:14;2.13;;;2.00;;
769;SDS011;368;48.698;9.116;2022-09-13T07:41:41;2.97;;;2.10;;
769;SDS011;368;48.698;9.116;2022-09-13T07:44:08;2.40;;;2.00;;
769;SDS011;368;48.698;9.116;2022-09-13T07:46:35;3.53;;;1.93;;
769;SDS011;368;48.698;9.116;2022-09-13T07:49:04;4.13;;;1.90;;
769;SDS011;368;48.698;9.116;2022-09-13T07:51:33;2.23;;;1.93;;
769;SDS011;368;48.698;9.116;2022-09-13T07:54:02;2.37;;;1.87;;
769;SDS011;368;48.698;9.116;2022-09-13T07:56:30;2.60;;;1.73;;
769;SDS011;368;48.698;9.116;2022-09-13T07:58:59;3.43;;;1.70;;
769;SDS011;368;48.698;9.116;2022-09-13T08:01:28;2.20;;;1.70;;
769;SDS011;368;48.698;9.116;2022-09-13T08:03:58;1.80;;;1.70;;
769;SDS011;368;48.698;9.116;2022-09-13T08:06:29;2.20;;;1.50;;
769;SDS011;368;48.698;9.116;2022-09-13T08:08:58;1.90;;;1.60;;
769;SDS011;368;48.698;9.116;2022-09-13T08:11:26;2.17;;;1.80;;
769;SDS011;368;48.698;9.116;2022-09-13T08:13:55;2.40;;;1.70;;
769;SDS011;368;48.698;9.116;2022-09-13T08:16:22;2.30;;;1.87;;
769;SDS011;368;48.698;9.116;2022-09-13T08:18:50;1.87;;;1.67;;
769;SDS011;368;48.698;9.116;2022-09-13T08:21:18;2.20;;;1.87;;
769;SDS011;368;48.698;9.116;2022-09-13T08:23:45;1.43;;;1.30;;
769;SDS011;368;48.698;9.116;2022-09-13T08:26:15;1.43;;;1.33;;
769;SDS011;368;48.698;9.116;2022-09-13T08:28:42;2.10;;;1.90;;
769;SDS011;368;48.698;9.116;2022-09-13T08:31:09;4.30;;;2.10;;
769;SDS011;368;48.698;9.116;2022-09-13T08:33:41;2.33;;;2.13;;
769;SDS011;368;48.698;9.116;2022-09-13T08:36:08;2.10;;;1.60;;
769;SDS011;368;48.698;9.116;2022-09-13T08:38:35;1.40;;;1.30;;
769;SDS011;368;48.698;9.116;2022-09-13T08:41:03;2.10;;;1.70;;
769;SDS011;368;48.698;9.116;2022-09-13T08:43:47;1.97;;;1.20;;
769;SDS011;368;48.698;9.116;2022-09-13T08:46:19;4.13;;;1.90;;
769;SDS011;368;48.698;9.116;2022-09-13T08:48:49;1.90;;;1.57;;
769;SDS011;368;48.698;9.116;2022-09-13T08:51:22;2.27;;;1.60;;
769;SDS011;368;48.698;9.116;2022-09-13T08:53:54;3.13;;;1.63;;
769;SDS011;368;48.698;9.116;2022-09-13T08:56:22;2.20;;;1.87;;
769;SDS011;368;48.698;9.116;2022-09-13T08:59:01;6.70;;;2.10;;
769;SDS011;368;48.698;9.116;2022-09-13T09:01:53;1.47;;;1.37;;
769;SDS011;368;48.698;9.116;2022-09-13T09:04:31;1.60;;;1.50;;
769;SDS011;368;48.698;9.116;2022-09-13T09:07:03;3.17;;;1.50;;
769;SDS011;368;48.698;9.116;2022-09-13T09:09:36;1.80;;;1.60;;
769;SDS011;368;48.698;9.116;2022-09-13T09:12:10;2.30;;;1.87;;
769;SDS011;368;48.698;9.116;2022-09-13T09:14:44;2.03;;;1.73;;
769;SDS011;368;48.698;9.116;2022-09-13T09:17:17;2.20;;;1.50;;
769;SDS011;368;48.698;9.116;2022-09-13T09:19:51;1.67;;;1.57;;
769;SDS011;368;48.698;9.116;2022-09-13T09:22:24;2.37;;;1.67;;
769;SDS011;368;48.698;9.116;2022-09-13T09:24:59;1.57;;;1.33;;
769;SDS011;368;48.698;9.116;2022-09-13T09:27:29;2.17;;;1.70;;
769;SDS011;368;48.698;9.116;2022-09-13T09:29:57;1.83;;;1.33;;
769;SDS011;368;48.698;9.116;2022-09-13T09:32:40;3.73;;;1.23;;
769;SDS011;368;48.698;9.116;2022-09-13T09:35:20;1.60;;;0.90;;
769;SDS011;368;48.698;9.116;2022-09-13T09:40:58;2.97;;;1.30;;
769;SDS011;368;48.698;9.116;2022-09-13T09:43:28;1.30;;;1.00;;
769;SDS011;368;48.698;9.116;2022-09-13T09:46:00;0.70;;;0.70;;
769;SDS011;368;48.698;9.116;2022-09-13T09:48:30;1.43;;;1.00;;
769;SDS011;368;48.698;9.116;2022-09-13T09:51:04;2.50;;;1.43;;
769;SDS011;368;48.698;9.116;2022-09-13T09:53:36;2.40;;;1.20;;
769;SDS011;368;48.698;9.116;2022-09-13T09:56:11;1.03;;;0.93;;
769;SDS011;368;48.698;9.116;2022-09-13T09:58:48;0.60;;;0.60;;
769;SDS011;368;48.698;9.116;2022-09-13T10:01:19;0.90;;;0.80;;
769;SDS011;368;48.698;9.116;2022-09-13T10:03:50;1.40;;;0.83;;
769;SDS011;368;48.698;9.116;2022-09-13T10:06:22;1.33;;;0.80;;
769;SDS011;368;48.698;9.116;2022-09-13T10:08:53;0.80;;;0.80;;
769;SDS011;368;48.698;9.116;2022-09-13T10:11:36;1.30;;;1.00;;
769;SDS011;368;48.698;9.116;2022-09-13T10:14:04;0.80;;;0.80;;
769;SDS011;368;48.698;9.116;2022-09-13T10:16:32;0.87;;;0.80;;
769;SDS011;368;48.698;9.116;2022-09-13T10:19:19;0.90;;;0.67;;
769;SDS011;368;48.698;9.116;2022-09-13T10:21:59;2.23;;;1.00;;
769;SDS011;368;48.698;9.116;2022-09-13T10:24:27;1.03;;;0.60;;
769;SDS011;368;48.698;9.116;2022-09-13T10:26:54;0.80;;;0.80;;
769;SDS011;368;48.698;9.116;2022-09-13T10:29:21;0.80;;;0.80;;
769;SDS011;368;48.698;9.116;2022-09-13T10:31:51;0.87;;;0.87;;
769;SDS011;368;48.698;9.116;2022-09-13T10:34:22;0.70;;;0.70;;
769;SDS011;368;48.698;9.116;2022-09-13T10:36:52;1.17;;;0.97;;
769;SDS011;368;48.698;9.116;2022-09-13T10:39:22;2.13;;;0.80;;
769;SDS011;368;48.698;9.116;2022-09-13T10:41:52;1.27;;;0.90;;
769;SDS011;368;48.698;9.116;2022-09-13T10:44:22;1.63;;;0.80;;
769;SDS011;368;48.698;9.116;2022-09-13T10:46:53;1.83;;;0.70;;
769;SDS011;368;48.698;9.116;2022-09-13T10:49:34;2.60;;;0.70;;
769;SDS011;368;48.698;9.116;2022-09-13T10:52:04;0.60;;;0.60;;
769;SDS011;368;48.698;9.116;2022-09-13T10:57:51;1.17;;;0.70;;
769;SDS011;368;48.698;9.116;2022-09-13T11:00:19;1.53;;;0.70;;
769;SDS011;368;48.698;9.116;2022-09-13T11:02:57;0.90;;;0.70;;
769;SDS011;368;48.698;9.116;2022-09-13T11:05:44;1.10;;;0.43;;
769;SDS011;368;48.698;9.116;2022-09-13T11:08:29;1.20;;;0.57;;
769;SDS011;368;48.698;9.116;2022-09-13T11:11:08;0.60;;;0.50;;
769;SDS011;368;48.698;9.116;2022-09-13T11:13:43;1.23;;;0.50;;
769;SDS011;368;48.698;9.116;2022-09-13T11:16:23;1.07;;;0.60;;
769;SDS011;368;48.698;9.116;2022-09-13T11:19:16;0.40;;;0.30;;
769;SDS011;368;48.698;9.116;2022-09-13T11:22:11;0.50;;;0.40;;
769;SDS011;368;48.698;9.116;2022-09-13T11:24:57;0.50;;;0.40;;
769;SDS011;368;48.698;9.116;2022-09-13T11:27:37;0.73;;;0.40;;
769;SDS011;368;48.698;9.116;2022-09-13T11:30:14;0.73;;;0.40;;
769;SDS011;368;48.698;9.116;2022-09-13T11:32:50;0.90;;;0.50;;
769;SDS011;368;48.698;9.116;2022-09-13T11:35:30;0.50;;;0.50;;
769;SDS011;368;48.698;9.116;2022-09-13T11:38:14;0.50;;;0.40;;
769;SDS011;368;48.698;9.116;2022-09-13T11:40:59;1.67;;;0.50;;
769;SDS011;368;48.698;9.116;2022-09-13T11:43:43;0.70;;;0.47;;
769;SDS011;368;48.698;9.116;2022-09-13T11:46:22;0.50;;;0.40;;
769;SDS011;368;48.698;9.116;2022-09-13T11:49:02;0.83;;;0.53;;
769;SDS011;368;48.698;9.116;2022-09-13T11:51:50;0.47;;;0.43;;
769;SDS011;368;48.698;9.116;2022-09-13T11:54:31;1.00;;;0.70;;
769;SDS011;368;48.698;9.116;2022-09-13T11:57:05;1.37;;;0.73;;
769;SDS011;368;48.698;9.116;2022-09-13T11:59:37;0.50;;;0.50;;
769;SDS011;368;48.698;9.116;2022-09-13T12:02:11;0.40;;;0.40;;
769;SDS011;368;48.698;9.116;2022-09-13T12:04:46;0.50;;;0.43;;
769;SDS011;368;48.698;9.116;2022-09-13T12:07:23;1.47;;;0.50;;
769;SDS011;368;48.698;9.116;2022-09-13T12:09:57;0.57;;;0.57;;
769;SDS011;368;48.698;9.116;2022-09-13T12:12:31;0.90;;;0.60;;
769;SDS011;368;48.698;9.116;2022-09-13T12:15:02;2.33;;;0.80;;
769;SDS011;368;48.698;9.116;2022-09-13T12:17:34;0.77;;;0.70;;
769;SDS011;368;48.698;9.116;2022-09-13T12:20:10;1.50;;;0.90;;
769;SDS011;368;48.698;9.116;2022-09-13T12:22:42;1.50;;;0.90;;
769;SDS011;368;48.698;9.116;2022-09-13T12:25:15;0.97;;;0.60;;
769;SDS011;368;48.698;9.116;2022-09-13T12:27:47;2.50;;;0.80;;
769;SDS011;368;48.698;9.116;2022-09-13T12:30:21;2.40;;;0.70;;
769;SDS011;368;48.698;9.116;2022-09-13T12:32:50;1.07;;;0.80;;
769;SDS011;368;48.698;9.116;2022-09-13T12:35:19;1.20;;;1.00;;
769;SDS011;368;48.698;9.116;2022-09-13T12:40:57;1.47;;;1.00;;
769;SDS011;368;48.698;9.116;2022-09-13T12:43:48;0.93;;;0.70;;
769;SDS011;368;48.698;9.116;2022-09-13T12:46:31;0.70;;;0.70;;
769;SDS011;368;48.698;9.116;2022-09-13T12:49:32;2.00;;;0.90;;
769;SDS011;368;48.698;9.116;2022-09-13T12:52:16;0.73;;;0.50;;
769;SDS011;368;48.698;9.116;2022-09-13T12:55:08;1.70;;;0.70;;
769;SDS011;368;48.698;9.116;2022-09-13T12:57:47;0.60;;;0.60;;
769;SDS011;368;48.698;9.116;2022-09-13T13:00:21;1.43;;;0.73;;
769;SDS011;368;48.698;9.116;2022-09-13T13:02:51;0.80;;;0.80;;
769;SDS011;368;48.698;9.116;2022-09-13T13:05:36;0.90;;;0.70;;
769;SDS011;368;48.698;9.116;2022-09-13T13:08:23;1.07;;;0.60;;
769;SDS011;368;48.698;9.116;2022-09-13T13:11:01;1.93;;;0.97;;
769;SDS011;368;48.698;9.116;2022-09-13T13:13:35;1.10;;;1.07;;
769;SDS011;368;48.698;9.116;2022-09-13T13:16:04;1.33;;;0.70;;
769;SDS011;368;48.698;9.116;2022-09-13T13:18:48;1.53;;;0.60;;
769;SDS011;368;48.698;9.116;2022-09-13T13:27:36;0.87;;;0.87;;
769;SDS011;368;48.698;9.116;2022-09-13T13:33:16;2.73;;;0.70;;
769;SDS011;368;48.698;9.116;2022-09-13T13:35:45;3.10;;;0.67;;
769;SDS011;368;48.698;9.116;2022-09-13T13:38:13;2.23;;;0.77;;
769;SDS011;368;48.698;9.116;2022-09-13T13:40:42;3.03;;;0.60;;
769;SDS011;368;48.698;9.116;2022-09-13T13:43:30;0.70;;;0.60;;
769;SDS011;368;48.698;9.116;2022-09-13T13:48:52;0.50;;;0.50;;
769;SDS011;368;48.698;9.116;2022-09-13T13:51:25;1.10;;;0.73;;
769;SDS011;368;48.698;9.116;2022-09-13T13:53:59;0.60;;;0.60;;
769;SDS011;368;48.698;9.116;2022-09-13T13:56:46;1.57;;;0.90;;
769;SDS011;368;48.698;9.116;2022-09-13T13:59:16;0.90;;;0.60;;
769;SDS011;368;48.698;9.116;2022-09-13T14:01:49;1.63;;;0.67;;
769;SDS011;368;48.698;9.116;2022-09-13T14:07:23;0.80;;;0.60;;
769;SDS011;368;48.698;9.116;2022-09-13T14:10:10;1.03;;;0.53;;
769;SDS011;368;48.698;9.116;2022-09-13T14:12:47;0.70;;;0.57;;
769;SDS011;368;48.698;9.116;2022-09-13T14:15:37;0.70;;;0.70;;
769;SDS011;368;48.698;9.116;2022-09-13T14:21:21;1.53;;;0.70;;
769;SDS011;368;48.698;9.116;2022-09-13T14:23:54;2.30;;;0.60;;
769;SDS011;368;48.698;9.116;2022-09-13T14:26:43;0.73;;;0.70;;
769;SDS011;368;48.698;9.116;2022-09-13T14:29:11;1.13;;;0.60;;
769;SDS011;368;48.698;9.116;2022-09-13T14:31:45;3.43;;;0.73;;
769;SDS011;368;48.698;9.116;2022-09-13T14:34:20;0.90;;;0.60;;
769;SDS011;368;48.698;9.116;2022-09-13T14:36:52;0.40;;;0.40;;
769;SDS011;368;48.698;9.116;2022-09-13T14:39:20;1.73;;;0.87;;
769;SDS011;368;48.698;9.116;2022-09-13T14:41:47;1.40;;;0.90;;
769;SDS011;368;48.698;9.116;2022-09-13T14:44:24;1.20;;;0.80;;
769;SDS011;368;48.698;9.116;2022-09-13T14:46:54;1.33;;;0.70;;
769;SDS011;368;48.698;9.116;2022-09-13T14:49:28;0.80;;;0.80;;
769;SDS011;368;48.698;9.116;2022-09-13T14:51:59;0.90;;;0.60;;
769;SDS011;368;48.698;9.116;2022-09-13T14:54:30;1.63;;;0.50;;
769;SDS011;368;48.698;9.116;2022-09-13T14:57:02;1.17;;;0.50;;
769;SDS011;368;48.698;9.116;2022-09-13T14:59:33;0.93;;;0.40;;
769;SDS011;368;48.698;9.116;2022-09-13T15:02:10;1.03;;;0.70;;
769;SDS011;368;48.698;9.116;2022-09-13T15:04:43;1.80;;;0.43;;
769;SDS011;368;48.698;9.116;2022-09-13T15:07:17;1.00;;;0.80;;
769;SDS011;368;48.698;9.116;2022-09-13T15:09:47;1.63;;;0.90;;
769;SDS011;368;48.698;9.116;2022-09-13T15:12:20;1.63;;;0.80;;
769;SDS011;368;48.698;9.116;2022-09-13T15:14:49;2.60;;;0.57;;
769;SDS011;368;48.698;9.116;2022-09-13T15:17:52;0.90;;;0.63;;
769;SDS011;368;48.698;9.116;2022-09-13T15:20:20;0.73;;;0.60;;
769;SDS011;368;48.698;9.116;2022-09-13T15:22:48;4.50;;;1.10;;
769;SDS011;368;48.698;9.116;2022-09-13T15:25:18;1.60;;;1.00;;
769;SDS011;368;48.698;9.116;2022-09-13T15:27:48;1.43;;;0.90;;
769;SDS011;368;48.698;9.116;2022-09-13T15:30:19;2.93;;;1.63;;
769;SDS011;368;48.698;9.116;2022-09-13T15:33:04;2.00;;;1.80;;
769;SDS011;368;48.698;9.116;2022-09-13T15:35:41;3.40;;;3.10;;
769;SDS011;368;48.698;9.116;2022-09-13T15:38:24;4.43;;;2.20;;
769;SDS011;368;48.698;9.116;2022-09-13T15:41:02;1.70;;;1.60;;
769;SDS011;368;48.698;9.116;2022-09-13T15:43:37;1.50;;;1.23;;
769;SDS011;368;48.698;9.116;2022-09-13T15:46:05;1.90;;;1.13;;
769;SDS011;368;48.698;9.116;2022-09-13T15:48:35;1.30;;;0.90;;
769;SDS011;368;48.698;9.116;2022-09-13T15:51:06;2.03;;;0.90;;
769;SDS011;368;48.698;9.116;2022-09-13T15:53:34;2.00;;;0.70;;
769;SDS011;368;48.698;9.116;2022-09-13T15:56:02;1.40;;;1.30;;
769;SDS011;368;48.698;9.116;2022-09-13T15:58:30;2.53;;;1.67;;
769;SDS011;368;48.698;9.116;2022-09-13T16:00:58;2.50;;;1.93;;
769;SDS011;368;48.698;9.116;2022-09-13T16:03:26;2.63;;;1.20;;
769;SDS011;368;48.698;9.116;2022-09-13T16:05:53;1.80;;;0.93;;
769;SDS011;368;48.698;9.116;2022-09-13T16:08:21;1.03;;;0.60;;
769;SDS011;368;48.698;9.116;2022-09-13T16:10:49;2.50;;;0.87;;
769;SDS011;368;48.698;9.116;2022-09-13T16:13:16;1.80;;;1.20;;
769;SDS011;368;48.698;9.116;2022-09-13T16:15:43;1.73;;;0.90;;
769;SDS011;368;48.698;9.116;2022-09-13T16:18:09;2.40;;;1.40;;
769;SDS011;368;48.698;9.116;2022-09-13T16:20:42;1.37;;;0.87;;
769;SDS011;368;48.698;9.116;2022-09-13T16:23:09;1.00;;;0.90;;
769;SDS011;368;48.698;9.116;2022-09-13T16:25:36;1.10;;;1.00;;
769;SDS011;368;48.698;9.116;2022-09-13T16:28:03;1.80;;;1.20;;
769;SDS011;368;48.698;9.116;2022-09-13T16:30:31;1.80;;;1.00;;
769;SDS011;368;48.698;9.116;2022-09-13T16:32:58;1.20;;;1.00;;
769;SDS011;368;48.698;9.116;2022-09-13T16:35:25;3.77;;;1.00;;
769;SDS011;368;48.698;9.116;2022-09-13T16:37:56;1.33;;;1.20;;
769;SDS011;368;48.698;9.116;2022-09-13T16:40:23;1.77;;;1.23;;
769;SDS011;368;48.698;9.116;2022-09-13T16:42:50;3.87;;;1.07;;
769;SDS011;368;48.698;9.116;2022-09-13T16:45:18;2.50;;;1.03;;